sensor_id;sensor_type;location;lat;lon;timestamp;P1;durP1;ratioP1;P2;durP2;ratioP2
76373;SDS011;65197;50.164;8.012;2023-06-22T00:00:55;8.30;;;6.68;;
76373;SDS011;65197;50.164;8.012;2023-06-22T00:03:21;6.80;;;5.32;;
76373;SDS011;65197;50.164;8.012;2023-06-22T00:05:48;6.80;;;5.90;;
76373;SDS011;65197;50.164;8.012;2023-06-22T00:08:14;7.20;;;5.63;;
76373;SDS011;65197;50.164;8.012;2023-06-22T00:10:40;7.45;;;6.28;;
76373;SDS011;65197;50.164;8.012;2023-06-22T00:13:06;7.80;;;6.55;;
76373;SDS011;65197;50.164;8.012;2023-06-22T00:15:33;8.52;;;7.05;;
76373;SDS011;65197;50.164;8.012;2023-06-22T00:17:58;12.50;;;7.38;;
76373;SDS011;65197;50.164;8.012;2023-06-22T00:20:25;9.35;;;6.78;;
76373;SDS011;65197;50.164;8.012;2023-06-22T00:22:56;9.23;;;7.45;;
76373;SDS011;65197;50.164;8.012;2023-06-22T00:25:22;9.52;;;7.38;;
76373;SDS011;65197;50.164;8.012;2023-06-22T00:27:48;13.93;;;8.15;;
76373;SDS011;65197;50.164;8.012;2023-06-22T00:30:17;13.23;;;8.82;;
76373;SDS011;65197;50.164;8.012;2023-06-22T00:32:43;12.10;;;8.65;;
76373;SDS011;65197;50.164;8.012;2023-06-22T00:35:09;10.07;;;8.02;;
76373;SDS011;65197;50.164;8.012;2023-06-22T00:37:35;11.55;;;8.73;;
76373;SDS011;65197;50.164;8.012;2023-06-22T00:40:02;10.27;;;8.10;;
76373;SDS011;65197;50.164;8.012;2023-06-22T00:42:28;9.65;;;7.97;;
76373;SDS011;65197;50.164;8.012;2023-06-22T00:44:54;10.00;;;7.90;;
76373;SDS011;65197;50.164;8.012;2023-06-22T00:47:19;11.27;;;7.97;;
76373;SDS011;65197;50.164;8.012;2023-06-22T00:49:45;10.00;;;8.13;;
76373;SDS011;65197;50.164;8.012;2023-06-22T00:52:13;13.50;;;8.75;;
76373;SDS011;65197;50.164;8.012;2023-06-22T00:54:42;10.80;;;8.80;;
76373;SDS011;65197;50.164;8.012;2023-06-22T00:57:13;10.77;;;8.65;;
76373;SDS011;65197;50.164;8.012;2023-06-22T00:59:42;12.15;;;9.15;;
76373;SDS011;65197;50.164;8.012;2023-06-22T01:02:08;11.70;;;9.20;;
76373;SDS011;65197;50.164;8.012;2023-06-22T01:04:34;10.52;;;8.45;;
76373;SDS011;65197;50.164;8.012;2023-06-22T01:07:10;12.32;;;8.82;;
76373;SDS011;65197;50.164;8.012;2023-06-22T01:12:20;10.27;;;8.43;;
76373;SDS011;65197;50.164;8.012;2023-06-22T01:15:30;13.38;;;9.43;;
76373;SDS011;65197;50.164;8.012;2023-06-22T01:17:46;13.13;;;9.27;;
76373;SDS011;65197;50.164;8.012;2023-06-22T01:20:14;13.05;;;10.18;;
76373;SDS011;65197;50.164;8.012;2023-06-22T01:23:05;15.77;;;10.77;;
76373;SDS011;65197;50.164;8.012;2023-06-22T01:25:48;13.75;;;10.68;;
76373;SDS011;65197;50.164;8.012;2023-06-22T01:31:13;13.23;;;10.55;;
76373;SDS011;65197;50.164;8.012;2023-06-22T01:33:42;13.00;;;11.38;;
76373;SDS011;65197;50.164;8.012;2023-06-22T01:36:09;13.90;;;11.75;;
76373;SDS011;65197;50.164;8.012;2023-06-22T01:38:35;19.13;;;12.88;;
76373;SDS011;65197;50.164;8.012;2023-06-22T01:41:02;16.83;;;13.07;;
76373;SDS011;65197;50.164;8.012;2023-06-22T01:43:28;15.23;;;12.80;;
76373;SDS011;65197;50.164;8.012;2023-06-22T01:45:55;17.88;;;13.80;;
76373;SDS011;65197;50.164;8.012;2023-06-22T01:48:22;16.88;;;13.35;;
76373;SDS011;65197;50.164;8.012;2023-06-22T01:50:48;14.00;;;12.30;;
76373;SDS011;65197;50.164;8.012;2023-06-22T01:53:13;14.68;;;12.23;;
76373;SDS011;65197;50.164;8.012;2023-06-22T01:55:39;16.48;;;13.32;;
76373;SDS011;65197;50.164;8.012;2023-06-22T01:58:04;18.02;;;13.07;;
76373;SDS011;65197;50.164;8.012;2023-06-22T02:00:31;15.55;;;12.35;;
76373;SDS011;65197;50.164;8.012;2023-06-22T02:03:13;15.05;;;12.57;;
76373;SDS011;65197;50.164;8.012;2023-06-22T02:05:50;15.02;;;12.75;;
76373;SDS011;65197;50.164;8.012;2023-06-22T02:08:24;16.02;;;13.90;;
76373;SDS011;65197;50.164;8.012;2023-06-22T02:10:53;16.98;;;14.27;;
76373;SDS011;65197;50.164;8.012;2023-06-22T02:13:21;20.00;;;14.50;;
76373;SDS011;65197;50.164;8.012;2023-06-22T02:15:46;18.73;;;13.43;;
76373;SDS011;65197;50.164;8.012;2023-06-22T02:18:13;14.98;;;11.70;;
76373;SDS011;65197;50.164;8.012;2023-06-22T02:20:39;14.57;;;11.80;;
76373;SDS011;65197;50.164;8.012;2023-06-22T02:23:05;13.73;;;11.82;;
76373;SDS011;65197;50.164;8.012;2023-06-22T02:25:32;15.07;;;12.35;;
76373;SDS011;65197;50.164;8.012;2023-06-22T02:27:58;13.63;;;12.00;;
76373;SDS011;65197;50.164;8.012;2023-06-22T02:30:23;16.67;;;12.50;;
76373;SDS011;65197;50.164;8.012;2023-06-22T02:32:48;16.52;;;12.85;;
76373;SDS011;65197;50.164;8.012;2023-06-22T02:35:14;14.43;;;12.65;;
76373;SDS011;65197;50.164;8.012;2023-06-22T02:37:39;16.58;;;13.40;;
76373;SDS011;65197;50.164;8.012;2023-06-22T02:40:08;16.25;;;12.90;;
76373;SDS011;65197;50.164;8.012;2023-06-22T02:42:35;16.55;;;13.52;;
76373;SDS011;65197;50.164;8.012;2023-06-22T02:45:01;16.20;;;13.32;;
76373;SDS011;65197;50.164;8.012;2023-06-22T02:47:27;16.92;;;13.57;;
76373;SDS011;65197;50.164;8.012;2023-06-22T02:49:52;17.30;;;14.57;;
76373;SDS011;65197;50.164;8.012;2023-06-22T02:52:18;15.60;;;13.25;;
76373;SDS011;65197;50.164;8.012;2023-06-22T02:54:43;15.85;;;13.80;;
76373;SDS011;65197;50.164;8.012;2023-06-22T02:57:11;17.27;;;14.82;;
76373;SDS011;65197;50.164;8.012;2023-06-22T02:59:38;17.65;;;13.80;;
76373;SDS011;65197;50.164;8.012;2023-06-22T03:02:07;17.92;;;14.93;;
76373;SDS011;65197;50.164;8.012;2023-06-22T03:04:34;22.17;;;16.92;;
76373;SDS011;65197;50.164;8.012;2023-06-22T03:07:00;19.65;;;15.88;;
76373;SDS011;65197;50.164;8.012;2023-06-22T03:09:26;18.35;;;16.30;;
76373;SDS011;65197;50.164;8.012;2023-06-22T03:11:55;21.55;;;17.60;;
76373;SDS011;65197;50.164;8.012;2023-06-22T03:14:21;23.20;;;18.80;;
76373;SDS011;65197;50.164;8.012;2023-06-22T03:16:46;25.25;;;19.98;;
76373;SDS011;65197;50.164;8.012;2023-06-22T03:19:11;21.98;;;17.88;;
76373;SDS011;65197;50.164;8.012;2023-06-22T03:21:37;21.77;;;17.55;;
76373;SDS011;65197;50.164;8.012;2023-06-22T03:24:03;22.48;;;16.98;;
76373;SDS011;65197;50.164;8.012;2023-06-22T03:26:30;20.08;;;16.58;;
76373;SDS011;65197;50.164;8.012;2023-06-22T03:28:55;22.23;;;16.75;;
76373;SDS011;65197;50.164;8.012;2023-06-22T03:31:20;20.33;;;16.73;;
76373;SDS011;65197;50.164;8.012;2023-06-22T03:33:46;19.17;;;16.20;;
76373;SDS011;65197;50.164;8.012;2023-06-22T03:36:14;20.30;;;16.92;;
76373;SDS011;65197;50.164;8.012;2023-06-22T03:38:41;22.40;;;17.52;;
76373;SDS011;65197;50.164;8.012;2023-06-22T03:41:06;21.45;;;17.20;;
76373;SDS011;65197;50.164;8.012;2023-06-22T03:43:32;21.35;;;16.48;;
76373;SDS011;65197;50.164;8.012;2023-06-22T03:45:57;21.00;;;17.17;;
76373;SDS011;65197;50.164;8.012;2023-06-22T03:48:23;19.42;;;16.23;;
76373;SDS011;65197;50.164;8.012;2023-06-22T03:50:48;19.83;;;16.30;;
76373;SDS011;65197;50.164;8.012;2023-06-22T03:53:13;20.52;;;16.17;;
76373;SDS011;65197;50.164;8.012;2023-06-22T03:55:45;17.90;;;15.70;;
76373;SDS011;65197;50.164;8.012;2023-06-22T03:58:14;19.17;;;14.25;;
76373;SDS011;65197;50.164;8.012;2023-06-22T04:00:39;17.35;;;15.30;;
76373;SDS011;65197;50.164;8.012;2023-06-22T04:03:05;18.02;;;14.88;;
76373;SDS011;65197;50.164;8.012;2023-06-22T04:05:32;17.75;;;14.85;;
76373;SDS011;65197;50.164;8.012;2023-06-22T04:07:57;17.05;;;14.98;;
76373;SDS011;65197;50.164;8.012;2023-06-22T04:10:23;17.15;;;14.93;;
76373;SDS011;65197;50.164;8.012;2023-06-22T04:12:48;18.58;;;15.55;;
76373;SDS011;65197;50.164;8.012;2023-06-22T04:15:14;16.67;;;14.15;;
76373;SDS011;65197;50.164;8.012;2023-06-22T04:17:39;19.15;;;15.82;;
76373;SDS011;65197;50.164;8.012;2023-06-22T04:20:05;18.13;;;14.55;;
76373;SDS011;65197;50.164;8.012;2023-06-22T04:22:31;20.33;;;15.68;;
76373;SDS011;65197;50.164;8.012;2023-06-22T04:24:56;19.98;;;15.95;;
76373;SDS011;65197;50.164;8.012;2023-06-22T04:27:22;17.92;;;14.95;;
76373;SDS011;65197;50.164;8.012;2023-06-22T04:29:48;18.20;;;14.88;;
76373;SDS011;65197;50.164;8.012;2023-06-22T04:32:14;19.83;;;15.52;;
76373;SDS011;65197;50.164;8.012;2023-06-22T04:34:40;18.55;;;14.45;;
76373;SDS011;65197;50.164;8.012;2023-06-22T04:37:05;18.52;;;15.13;;
76373;SDS011;65197;50.164;8.012;2023-06-22T04:39:31;22.50;;;15.95;;
76373;SDS011;65197;50.164;8.012;2023-06-22T04:41:56;19.83;;;16.10;;
76373;SDS011;65197;50.164;8.012;2023-06-22T04:44:25;17.45;;;14.65;;
76373;SDS011;65197;50.164;8.012;2023-06-22T04:46:55;17.23;;;13.65;;
76373;SDS011;65197;50.164;8.012;2023-06-22T04:49:33;16.20;;;13.63;;
76373;SDS011;65197;50.164;8.012;2023-06-22T04:52:01;18.23;;;13.57;;
76373;SDS011;65197;50.164;8.012;2023-06-22T04:54:28;16.70;;;13.98;;
76373;SDS011;65197;50.164;8.012;2023-06-22T04:56:54;17.02;;;13.60;;
76373;SDS011;65197;50.164;8.012;2023-06-22T04:59:22;19.27;;;14.57;;
76373;SDS011;65197;50.164;8.012;2023-06-22T05:01:54;17.23;;;13.85;;
76373;SDS011;65197;50.164;8.012;2023-06-22T05:04:20;18.67;;;14.68;;
76373;SDS011;65197;50.164;8.012;2023-06-22T05:06:46;18.58;;;13.45;;
76373;SDS011;65197;50.164;8.012;2023-06-22T05:09:11;17.75;;;14.40;;
76373;SDS011;65197;50.164;8.012;2023-06-22T05:11:37;17.30;;;14.32;;
76373;SDS011;65197;50.164;8.012;2023-06-22T05:14:02;16.48;;;12.52;;
76373;SDS011;65197;50.164;8.012;2023-06-22T05:16:28;17.08;;;13.20;;
76373;SDS011;65197;50.164;8.012;2023-06-22T05:18:53;16.40;;;13.57;;
76373;SDS011;65197;50.164;8.012;2023-06-22T05:21:23;18.58;;;14.35;;
76373;SDS011;65197;50.164;8.012;2023-06-22T05:23:49;17.65;;;14.40;;
76373;SDS011;65197;50.164;8.012;2023-06-22T05:26:15;17.95;;;14.52;;
76373;SDS011;65197;50.164;8.012;2023-06-22T05:28:41;19.25;;;15.07;;
76373;SDS011;65197;50.164;8.012;2023-06-22T05:31:06;17.98;;;14.57;;
76373;SDS011;65197;50.164;8.012;2023-06-22T05:33:32;20.23;;;16.23;;
76373;SDS011;65197;50.164;8.012;2023-06-22T05:35:57;21.67;;;16.15;;
76373;SDS011;65197;50.164;8.012;2023-06-22T05:38:22;54.33;;;17.98;;
76373;SDS011;65197;50.164;8.012;2023-06-22T05:40:48;37.58;;;18.25;;
76373;SDS011;65197;50.164;8.012;2023-06-22T05:43:13;23.38;;;17.67;;
76373;SDS011;65197;50.164;8.012;2023-06-22T05:45:39;27.45;;;16.55;;
76373;SDS011;65197;50.164;8.012;2023-06-22T05:48:04;24.10;;;17.25;;
76373;SDS011;65197;50.164;8.012;2023-06-22T05:50:30;19.83;;;15.70;;
76373;SDS011;65197;50.164;8.012;2023-06-22T05:52:55;20.52;;;15.90;;
76373;SDS011;65197;50.164;8.012;2023-06-22T05:55:21;19.63;;;15.38;;
76373;SDS011;65197;50.164;8.012;2023-06-22T05:57:46;22.45;;;15.27;;
76373;SDS011;65197;50.164;8.012;2023-06-22T06:00:12;20.25;;;16.77;;
76373;SDS011;65197;50.164;8.012;2023-06-22T06:02:38;18.50;;;15.02;;
76373;SDS011;65197;50.164;8.012;2023-06-22T06:05:08;16.98;;;14.75;;
76373;SDS011;65197;50.164;8.012;2023-06-22T06:07:34;18.00;;;15.52;;
76373;SDS011;65197;50.164;8.012;2023-06-22T06:10:00;16.42;;;14.25;;
76373;SDS011;65197;50.164;8.012;2023-06-22T06:12:25;18.70;;;14.52;;
76373;SDS011;65197;50.164;8.012;2023-06-22T06:14:51;15.55;;;13.75;;
76373;SDS011;65197;50.164;8.012;2023-06-22T06:17:18;24.52;;;14.95;;
76373;SDS011;65197;50.164;8.012;2023-06-22T06:19:43;18.45;;;14.25;;
76373;SDS011;65197;50.164;8.012;2023-06-22T06:22:09;18.10;;;13.98;;
76373;SDS011;65197;50.164;8.012;2023-06-22T06:24:34;16.15;;;14.25;;
76373;SDS011;65197;50.164;8.012;2023-06-22T06:26:59;15.30;;;13.32;;
76373;SDS011;65197;50.164;8.012;2023-06-22T06:29:25;16.13;;;13.05;;
76373;SDS011;65197;50.164;8.012;2023-06-22T06:31:50;16.55;;;12.07;;
76373;SDS011;65197;50.164;8.012;2023-06-22T06:34:16;15.80;;;12.95;;
76373;SDS011;65197;50.164;8.012;2023-06-22T06:36:41;16.67;;;14.02;;
76373;SDS011;65197;50.164;8.012;2023-06-22T06:39:07;14.80;;;13.10;;
76373;SDS011;65197;50.164;8.012;2023-06-22T06:41:33;15.00;;;13.02;;
76373;SDS011;65197;50.164;8.012;2023-06-22T06:43:59;14.32;;;12.82;;
76373;SDS011;65197;50.164;8.012;2023-06-22T06:46:25;17.58;;;13.02;;
76373;SDS011;65197;50.164;8.012;2023-06-22T06:48:50;18.48;;;13.63;;
76373;SDS011;65197;50.164;8.012;2023-06-22T06:51:16;14.82;;;12.90;;
76373;SDS011;65197;50.164;8.012;2023-06-22T06:53:41;12.95;;;11.45;;
76373;SDS011;65197;50.164;8.012;2023-06-22T06:56:06;14.45;;;12.77;;
76373;SDS011;65197;50.164;8.012;2023-06-22T06:58:33;14.55;;;12.13;;
76373;SDS011;65197;50.164;8.012;2023-06-22T07:00:59;14.02;;;11.90;;
76373;SDS011;65197;50.164;8.012;2023-06-22T07:03:24;14.00;;;12.50;;
76373;SDS011;65197;50.164;8.012;2023-06-22T07:05:50;12.90;;;11.52;;
76373;SDS011;65197;50.164;8.012;2023-06-22T07:08:15;15.43;;;12.43;;
76373;SDS011;65197;50.164;8.012;2023-06-22T07:10:40;12.93;;;11.63;;
76373;SDS011;65197;50.164;8.012;2023-06-22T07:13:06;13.52;;;11.70;;
76373;SDS011;65197;50.164;8.012;2023-06-22T07:15:31;15.77;;;12.50;;
76373;SDS011;65197;50.164;8.012;2023-06-22T07:17:56;13.52;;;12.10;;
76373;SDS011;65197;50.164;8.012;2023-06-22T07:20:22;13.90;;;12.50;;
76373;SDS011;65197;50.164;8.012;2023-06-22T07:22:47;13.77;;;12.30;;
76373;SDS011;65197;50.164;8.012;2023-06-22T07:25:13;13.15;;;11.85;;
76373;SDS011;65197;50.164;8.012;2023-06-22T07:27:46;13.85;;;12.35;;
76373;SDS011;65197;50.164;8.012;2023-06-22T07:30:29;15.18;;;13.68;;
76373;SDS011;65197;50.164;8.012;2023-06-22T07:32:55;13.23;;;11.82;;
76373;SDS011;65197;50.164;8.012;2023-06-22T07:35:20;13.63;;;12.32;;
76373;SDS011;65197;50.164;8.012;2023-06-22T07:37:45;15.80;;;12.18;;
76373;SDS011;65197;50.164;8.012;2023-06-22T07:40:11;14.93;;;13.43;;
76373;SDS011;65197;50.164;8.012;2023-06-22T07:42:37;14.15;;;12.65;;
76373;SDS011;65197;50.164;8.012;2023-06-22T07:45:03;14.18;;;12.65;;
76373;SDS011;65197;50.164;8.012;2023-06-22T07:47:29;13.93;;;12.40;;
76373;SDS011;65197;50.164;8.012;2023-06-22T07:49:55;14.02;;;12.57;;
76373;SDS011;65197;50.164;8.012;2023-06-22T07:52:23;15.13;;;12.43;;
76373;SDS011;65197;50.164;8.012;2023-06-22T07:54:49;14.35;;;12.77;;
76373;SDS011;65197;50.164;8.012;2023-06-22T07:57:15;15.25;;;12.88;;
76373;SDS011;65197;50.164;8.012;2023-06-22T07:59:40;16.70;;;13.18;;
76373;SDS011;65197;50.164;8.012;2023-06-22T08:02:05;13.85;;;12.20;;
76373;SDS011;65197;50.164;8.012;2023-06-22T08:04:31;14.75;;;12.88;;
76373;SDS011;65197;50.164;8.012;2023-06-22T08:06:59;12.98;;;11.50;;
76373;SDS011;65197;50.164;8.012;2023-06-22T08:09:24;16.13;;;13.20;;
76373;SDS011;65197;50.164;8.012;2023-06-22T08:11:49;15.23;;;11.13;;
76373;SDS011;65197;50.164;8.012;2023-06-22T08:14:15;14.35;;;12.95;;
76373;SDS011;65197;50.164;8.012;2023-06-22T08:16:41;13.95;;;12.55;;
76373;SDS011;65197;50.164;8.012;2023-06-22T08:19:06;15.07;;;12.88;;
76373;SDS011;65197;50.164;8.012;2023-06-22T08:21:32;14.95;;;13.30;;
76373;SDS011;65197;50.164;8.012;2023-06-22T08:23:57;13.88;;;12.45;;
76373;SDS011;65197;50.164;8.012;2023-06-22T08:26:23;15.50;;;13.02;;
76373;SDS011;65197;50.164;8.012;2023-06-22T08:28:48;14.85;;;12.43;;
76373;SDS011;65197;50.164;8.012;2023-06-22T08:31:14;14.57;;;12.10;;
76373;SDS011;65197;50.164;8.012;2023-06-22T08:33:39;13.63;;;12.27;;
76373;SDS011;65197;50.164;8.012;2023-06-22T08:36:05;17.33;;;13.30;;
76373;SDS011;65197;50.164;8.012;2023-06-22T08:38:31;14.05;;;11.15;;
76373;SDS011;65197;50.164;8.012;2023-06-22T08:40:56;14.65;;;13.02;;
76373;SDS011;65197;50.164;8.012;2023-06-22T08:43:22;14.30;;;12.20;;
76373;SDS011;65197;50.164;8.012;2023-06-22T08:45:47;13.57;;;12.23;;
76373;SDS011;65197;50.164;8.012;2023-06-22T08:48:13;16.02;;;12.18;;
76373;SDS011;65197;50.164;8.012;2023-06-22T08:50:38;12.38;;;11.13;;
76373;SDS011;65197;50.164;8.012;2023-06-22T08:53:05;11.90;;;10.75;;
76373;SDS011;65197;50.164;8.012;2023-06-22T08:55:31;11.85;;;9.93;;
76373;SDS011;65197;50.164;8.012;2023-06-22T08:57:56;11.45;;;10.23;;
76373;SDS011;65197;50.164;8.012;2023-06-22T09:00:22;11.30;;;9.98;;
76373;SDS011;65197;50.164;8.012;2023-06-22T09:02:47;10.90;;;9.38;;
76373;SDS011;65197;50.164;8.012;2023-06-22T09:05:13;11.15;;;9.35;;
76373;SDS011;65197;50.164;8.012;2023-06-22T09:07:38;10.27;;;9.25;;
76373;SDS011;65197;50.164;8.012;2023-06-22T09:10:04;11.07;;;9.98;;
76373;SDS011;65197;50.164;8.012;2023-06-22T09:12:30;10.77;;;9.27;;
76373;SDS011;65197;50.164;8.012;2023-06-22T09:14:57;11.55;;;8.68;;
76373;SDS011;65197;50.164;8.012;2023-06-22T09:17:24;11.68;;;9.55;;
76373;SDS011;65197;50.164;8.012;2023-06-22T09:19:50;10.82;;;9.10;;
76373;SDS011;65197;50.164;8.012;2023-06-22T09:22:15;10.82;;;9.43;;
76373;SDS011;65197;50.164;8.012;2023-06-22T09:24:40;13.68;;;9.55;;
76373;SDS011;65197;50.164;8.012;2023-06-22T09:27:06;11.73;;;9.25;;
76373;SDS011;65197;50.164;8.012;2023-06-22T09:29:31;10.65;;;9.60;;
76373;SDS011;65197;50.164;8.012;2023-06-22T09:32:00;9.90;;;8.90;;
76373;SDS011;65197;50.164;8.012;2023-06-22T09:34:25;11.10;;;10.10;;
76373;SDS011;65197;50.164;8.012;2023-06-22T09:36:51;10.80;;;8.82;;
76373;SDS011;65197;50.164;8.012;2023-06-22T09:39:17;10.85;;;9.75;;
76373;SDS011;65197;50.164;8.012;2023-06-22T09:41:43;10.48;;;9.48;;
76373;SDS011;65197;50.164;8.012;2023-06-22T09:44:09;12.23;;;10.90;;
76373;SDS011;65197;50.164;8.012;2023-06-22T09:46:34;9.93;;;8.93;;
76373;SDS011;65197;50.164;8.012;2023-06-22T09:49:00;12.18;;;10.05;;
76373;SDS011;65197;50.164;8.012;2023-06-22T09:51:25;10.40;;;9.35;;
76373;SDS011;65197;50.164;8.012;2023-06-22T09:53:51;10.30;;;9.20;;
76373;SDS011;65197;50.164;8.012;2023-06-22T09:56:17;10.05;;;9.05;;
76373;SDS011;65197;50.164;8.012;2023-06-22T09:58:43;11.18;;;9.98;;
76373;SDS011;65197;50.164;8.012;2023-06-22T10:01:09;11.30;;;10.10;;
76373;SDS011;65197;50.164;8.012;2023-06-22T10:03:36;10.80;;;9.63;;
76373;SDS011;65197;50.164;8.012;2023-06-22T10:06:02;12.65;;;9.88;;
76373;SDS011;65197;50.164;8.012;2023-06-22T10:08:27;10.70;;;9.65;;
76373;SDS011;65197;50.164;8.012;2023-06-22T10:10:53;12.23;;;10.38;;
76373;SDS011;65197;50.164;8.012;2023-06-22T10:13:18;11.55;;;10.35;;
76373;SDS011;65197;50.164;8.012;2023-06-22T10:15:44;12.52;;;11.20;;
76373;SDS011;65197;50.164;8.012;2023-06-22T10:18:14;11.15;;;10.05;;
76373;SDS011;65197;50.164;8.012;2023-06-22T10:20:41;11.30;;;9.60;;
76373;SDS011;65197;50.164;8.012;2023-06-22T10:23:06;12.90;;;11.10;;
76373;SDS011;65197;50.164;8.012;2023-06-22T10:25:31;12.75;;;10.73;;
76373;SDS011;65197;50.164;8.012;2023-06-22T10:27:57;13.57;;;11.48;;
76373;SDS011;65197;50.164;8.012;2023-06-22T10:30:22;12.98;;;10.00;;
76373;SDS011;65197;50.164;8.012;2023-06-22T10:32:48;12.02;;;10.45;;
76373;SDS011;65197;50.164;8.012;2023-06-22T10:35:14;11.77;;;10.55;;
76373;SDS011;65197;50.164;8.012;2023-06-22T10:37:41;12.85;;;10.40;;
76373;SDS011;65197;50.164;8.012;2023-06-22T10:40:10;12.52;;;11.23;;
76373;SDS011;65197;50.164;8.012;2023-06-22T10:42:39;12.00;;;10.32;;
76373;SDS011;65197;50.164;8.012;2023-06-22T10:45:05;11.85;;;9.82;;
76373;SDS011;65197;50.164;8.012;2023-06-22T10:47:31;12.18;;;10.50;;
76373;SDS011;65197;50.164;8.012;2023-06-22T10:49:57;13.52;;;11.10;;
76373;SDS011;65197;50.164;8.012;2023-06-22T10:52:22;11.60;;;10.40;;
76373;SDS011;65197;50.164;8.012;2023-06-22T10:54:48;14.32;;;11.23;;
76373;SDS011;65197;50.164;8.012;2023-06-22T10:57:13;11.93;;;10.52;;
76373;SDS011;65197;50.164;8.012;2023-06-22T10:59:39;13.43;;;11.00;;
76373;SDS011;65197;50.164;8.012;2023-06-22T11:02:04;13.18;;;11.02;;
76373;SDS011;65197;50.164;8.012;2023-06-22T11:04:30;13.73;;;10.95;;
76373;SDS011;65197;50.164;8.012;2023-06-22T11:06:55;12.55;;;11.13;;
76373;SDS011;65197;50.164;8.012;2023-06-22T11:09:21;12.20;;;10.48;;
76373;SDS011;65197;50.164;8.012;2023-06-22T11:11:47;11.82;;;10.68;;
76373;SDS011;65197;50.164;8.012;2023-06-22T11:14:13;12.70;;;11.48;;
76373;SDS011;65197;50.164;8.012;2023-06-22T11:16:38;12.98;;;10.80;;
76373;SDS011;65197;50.164;8.012;2023-06-22T11:19:04;12.25;;;10.85;;
76373;SDS011;65197;50.164;8.012;2023-06-22T11:21:30;15.35;;;11.25;;
76373;SDS011;65197;50.164;8.012;2023-06-22T11:23:56;13.40;;;11.45;;
76373;SDS011;65197;50.164;8.012;2023-06-22T11:26:22;15.63;;;11.40;;
76373;SDS011;65197;50.164;8.012;2023-06-22T11:28:47;13.48;;;11.63;;
76373;SDS011;65197;50.164;8.012;2023-06-22T11:31:13;13.35;;;11.93;;
76373;SDS011;65197;50.164;8.012;2023-06-22T11:33:39;13.15;;;10.88;;
76373;SDS011;65197;50.164;8.012;2023-06-22T11:36:04;12.80;;;11.50;;
76373;SDS011;65197;50.164;8.012;2023-06-22T11:38:30;12.95;;;11.25;;
76373;SDS011;65197;50.164;8.012;2023-06-22T11:40:55;11.85;;;10.68;;
76373;SDS011;65197;50.164;8.012;2023-06-22T11:43:22;13.32;;;11.80;;
76373;SDS011;65197;50.164;8.012;2023-06-22T11:45:47;12.88;;;11.40;;
76373;SDS011;65197;50.164;8.012;2023-06-22T11:48:13;14.15;;;11.00;;
76373;SDS011;65197;50.164;8.012;2023-06-22T11:50:38;11.68;;;10.52;;
76373;SDS011;65197;50.164;8.012;2023-06-22T11:53:03;12.88;;;10.98;;
76373;SDS011;65197;50.164;8.012;2023-06-22T11:55:29;14.00;;;11.18;;
76373;SDS011;65197;50.164;8.012;2023-06-22T11:57:55;11.32;;;10.20;;
76373;SDS011;65197;50.164;8.012;2023-06-22T12:00:23;13.48;;;10.98;;
76373;SDS011;65197;50.164;8.012;2023-06-22T12:02:49;11.90;;;10.65;;
76373;SDS011;65197;50.164;8.012;2023-06-22T12:05:16;12.25;;;10.68;;
76373;SDS011;65197;50.164;8.012;2023-06-22T12:07:43;13.07;;;9.85;;
76373;SDS011;65197;50.164;8.012;2023-06-22T12:10:09;13.88;;;9.40;;
76373;SDS011;65197;50.164;8.012;2023-06-22T12:12:34;13.50;;;9.63;;
76373;SDS011;65197;50.164;8.012;2023-06-22T12:15:00;11.10;;;9.15;;
76373;SDS011;65197;50.164;8.012;2023-06-22T12:17:28;9.13;;;8.02;;
76373;SDS011;65197;50.164;8.012;2023-06-22T12:19:54;10.35;;;8.82;;
76373;SDS011;65197;50.164;8.012;2023-06-22T12:22:19;10.10;;;8.02;;
76373;SDS011;65197;50.164;8.012;2023-06-22T12:24:44;11.73;;;8.82;;
76373;SDS011;65197;50.164;8.012;2023-06-22T12:27:10;9.05;;;8.15;;
76373;SDS011;65197;50.164;8.012;2023-06-22T12:29:35;10.70;;;8.48;;
76373;SDS011;65197;50.164;8.012;2023-06-22T12:32:00;11.05;;;8.75;;
76373;SDS011;65197;50.164;8.012;2023-06-22T12:34:26;9.73;;;8.30;;
76373;SDS011;65197;50.164;8.012;2023-06-22T12:36:51;11.38;;;9.00;;
76373;SDS011;65197;50.164;8.012;2023-06-22T12:39:19;11.57;;;8.88;;
76373;SDS011;65197;50.164;8.012;2023-06-22T12:41:44;12.20;;;8.68;;
76373;SDS011;65197;50.164;8.012;2023-06-22T12:44:10;11.30;;;8.35;;
76373;SDS011;65197;50.164;8.012;2023-06-22T12:46:35;11.60;;;7.90;;
76373;SDS011;65197;50.164;8.012;2023-06-22T12:49:03;13.90;;;8.82;;
76373;SDS011;65197;50.164;8.012;2023-06-22T12:51:31;11.15;;;8.43;;
76373;SDS011;65197;50.164;8.012;2023-06-22T12:53:56;11.15;;;9.13;;
76373;SDS011;65197;50.164;8.012;2023-06-22T12:56:22;9.45;;;8.40;;
76373;SDS011;65197;50.164;8.012;2023-06-22T12:58:47;11.10;;;8.52;;
76373;SDS011;65197;50.164;8.012;2023-06-22T13:01:13;9.98;;;8.02;;
76373;SDS011;65197;50.164;8.012;2023-06-22T13:03:38;11.45;;;7.90;;
76373;SDS011;65197;50.164;8.012;2023-06-22T13:06:04;13.45;;;8.57;;
76373;SDS011;65197;50.164;8.012;2023-06-22T13:08:29;11.43;;;9.25;;
76373;SDS011;65197;50.164;8.012;2023-06-22T13:10:55;11.77;;;8.88;;
76373;SDS011;65197;50.164;8.012;2023-06-22T13:15:50;9.90;;;8.05;;
76373;SDS011;65197;50.164;8.012;2023-06-22T13:18:15;10.20;;;8.98;;
76373;SDS011;65197;50.164;8.012;2023-06-22T13:20:41;13.77;;;9.20;;
76373;SDS011;65197;50.164;8.012;2023-06-22T13:23:06;10.77;;;8.48;;
76373;SDS011;65197;50.164;8.012;2023-06-22T13:25:32;11.32;;;9.18;;
76373;SDS011;65197;50.164;8.012;2023-06-22T13:27:57;11.00;;;8.27;;
76373;SDS011;65197;50.164;8.012;2023-06-22T13:30:22;10.85;;;7.25;;
76373;SDS011;65197;50.164;8.012;2023-06-22T13:32:48;11.20;;;7.30;;
76373;SDS011;65197;50.164;8.012;2023-06-22T13:35:13;11.40;;;7.38;;
76373;SDS011;65197;50.164;8.012;2023-06-22T13:37:39;11.15;;;8.30;;
76373;SDS011;65197;50.164;8.012;2023-06-22T13:40:05;9.30;;;7.78;;
76373;SDS011;65197;50.164;8.012;2023-06-22T13:42:32;11.50;;;8.02;;
76373;SDS011;65197;50.164;8.012;2023-06-22T13:44:58;9.73;;;8.65;;
76373;SDS011;65197;50.164;8.012;2023-06-22T13:47:23;11.90;;;8.88;;
76373;SDS011;65197;50.164;8.012;2023-06-22T13:49:48;9.60;;;8.57;;
76373;SDS011;65197;50.164;8.012;2023-06-22T13:52:14;13.05;;;9.13;;
76373;SDS011;65197;50.164;8.012;2023-06-22T13:54:39;12.30;;;8.60;;
76373;SDS011;65197;50.164;8.012;2023-06-22T13:57:05;11.52;;;8.60;;
76373;SDS011;65197;50.164;8.012;2023-06-22T13:59:30;11.30;;;8.50;;
76373;SDS011;65197;50.164;8.012;2023-06-22T14:01:56;10.45;;;9.02;;
76373;SDS011;65197;50.164;8.012;2023-06-22T14:04:23;10.13;;;9.00;;
76373;SDS011;65197;50.164;8.012;2023-06-22T14:06:48;11.63;;;9.13;;
76373;SDS011;65197;50.164;8.012;2023-06-22T14:09:14;12.77;;;8.85;;
76373;SDS011;65197;50.164;8.012;2023-06-22T14:11:39;10.32;;;8.70;;
76373;SDS011;65197;50.164;8.012;2023-06-22T14:14:04;10.43;;;8.25;;
76373;SDS011;65197;50.164;8.012;2023-06-22T14:16:30;14.18;;;9.20;;
76373;SDS011;65197;50.164;8.012;2023-06-22T14:18:55;12.23;;;8.95;;
76373;SDS011;65197;50.164;8.012;2023-06-22T14:21:20;12.32;;;9.02;;
76373;SDS011;65197;50.164;8.012;2023-06-22T14:23:46;12.55;;;8.98;;
76373;SDS011;65197;50.164;8.012;2023-06-22T14:26:14;12.43;;;8.93;;
76373;SDS011;65197;50.164;8.012;2023-06-22T14:28:44;13.88;;;8.82;;